Time;durP1;ratioP1;P1;durP2;ratioP2;P2;SDS_P1;SDS_P2;PMS_P1;PMS_P2;Temp;Humidity;BMP_temperature;BMP_pressure;BME280_temperature;BME280_humidity;BME280_pressure;Samples;Min_cycle;Max_cycle;Signal;HPM_P1;HPM_P2
2023/07/21 00:00:27;;;;;;;3.12;1.70;;;;;;;19.90;59.90;98366.19;4485901;32;20378;-67
2023/07/21 00:02:54;;;;;;;3.08;1.70;;;;;;;19.91;61.31;98375.81;4485905;32;20096;-67
2023/07/21 00:05:24;;;;;;;3.42;1.65;;;;;;;19.90;62.74;98376.03;4485779;32;20152;-67
2023/07/21 00:07:51;;;;;;;3.33;1.58;;;;;;;19.83;63.08;98374.19;4485542;32;20158;-67
2023/07/21 00:10:19;;;;;;;3.20;1.80;;;;;;;19.77;61.93;98369.72;4485767;32;20123;-67
2023/07/21 00:12:49;;;;;;;4.50;1.65;;;;;;;19.76;60.92;98362.72;4485956;32;20446;-67
2023/07/21 00:15:18;;;;;;;2.33;1.55;;;;;;;19.77;61.89;98368.84;4486104;32;20088;-67
2023/07/21 00:17:50;;;;;;;1.90;1.70;;;;;;;19.79;61.82;98366.84;4485752;32;20564;-67
2023/07/21 00:20:21;;;;;;;2.67;1.75;;;;;;;19.80;61.78;98371.13;4485803;32;20080;-67
2023/07/21 00:22:51;;;;;;;2.67;1.62;;;;;;;19.78;61.67;98371.31;4485135;32;20084;-67
2023/07/21 00:25:19;;;;;;;7.35;1.70;;;;;;;19.85;61.66;98374.78;4485690;32;20083;-67
2023/07/21 00:27:47;;;;;;;5.50;1.83;;;;;;;19.87;61.58;98374.59;4485639;32;20110;-67
2023/07/21 00:30:16;;;;;;;10.23;2.50;;;;;;;19.91;61.69;98374.97;4485713;32;20147;-67
2023/07/21 00:32:44;;;;;;;12.25;1.52;;;;;;;19.90;60.85;98378.69;4485697;32;20175;-67
2023/07/21 00:35:11;;;;;;;3.42;2.12;;;;;;;19.97;61.01;98374.97;4479493;32;20175;-67
2023/07/21 00:37:39;;;;;;;3.10;1.70;;;;;;;20.03;60.57;98368.84;4485423;32;20515;-67
2023/07/21 00:40:18;;;;;;;4.25;1.65;;;;;;;20.10;60.15;98373.31;4485619;32;20108;-67
2023/07/21 00:42:46;;;;;;;4.93;1.50;;;;;;;20.16;59.91;98378.59;4485814;32;20088;-67
2023/07/21 00:45:15;;;;;;;5.90;1.67;;;;;;;20.23;59.80;98373.28;4485781;32;20168;-67
2023/07/21 00:47:42;;;;;;;4.65;1.52;;;;;;;20.35;58.99;98373.47;4485355;32;20101;-67
2023/07/21 00:50:14;;;;;;;2.25;1.55;;;;;;;20.47;57.80;98368.28;4485401;32;20463;-67
2023/07/21 00:52:41;;;;;;;2.15;1.50;;;;;;;20.56;57.52;98365.19;4484874;32;20100;-67
2023/07/21 00:55:09;;;;;;;2.40;1.60;;;;;;;20.68;56.89;98365.38;4485412;32;20083;-67
2023/07/21 00:57:37;;;;;;;2.67;1.70;;;;;;;20.77;56.65;98357.91;4485475;32;20092;-67
2023/07/21 01:00:10;;;;;;;5.25;1.92;;;;;;;20.83;56.55;98362.41;4471123;32;20093;-67
2023/07/21 01:02:39;;;;;;;3.47;1.60;;;;;;;20.87;56.68;98352.16;4485688;32;20109;-67
2023/07/21 01:05:07;;;;;;;2.37;1.30;;;;;;;20.93;56.55;98356.63;4485602;32;20079;-67
2023/07/21 01:07:36;;;;;;;2.10;1.55;;;;;;;20.98;56.40;98354.13;4471208;32;20092;-67
2023/07/21 01:10:05;;;;;;;1.85;1.33;;;;;;;21.01;55.91;98358.19;4471499;32;20101;-67
2023/07/21 01:12:35;;;;;;;2.30;1.65;;;;;;;21.04;55.84;98355.91;4485287;32;20099;-67
2023/07/21 01:15:03;;;;;;;3.55;1.65;;;;;;;21.03;55.51;98342.81;4485689;32;20415;-67
2023/07/21 01:17:31;;;;;;;1.75;1.30;;;;;;;21.08;55.08;98351.78;4485380;32;20562;-67
2023/07/21 01:20:00;;;;;;;1.60;1.20;;;;;;;21.10;54.80;98346.25;4471540;32;20160;-67
2023/07/21 01:22:36;;;;;;;1.75;1.20;;;;;;;21.12;54.82;98338.87;4471810;32;20092;-67
2023/07/21 01:25:11;;;;;;;2.92;1.45;;;;;;;21.06;55.18;98345.03;4471434;32;20123;-67
2023/07/21 01:27:40;;;;;;;5.22;1.70;;;;;;;21.07;55.17;98350.19;4471696;32;20088;-67
2023/07/21 01:30:10;;;;;;;2.25;1.45;;;;;;;21.05;55.09;98348.75;4485264;32;20097;-67
2023/07/21 01:32:42;;;;;;;2.90;1.67;;;;;;;21.13;54.62;98345.00;4471054;32;20100;-67
2023/07/21 01:35:17;;;;;;;1.60;1.30;;;;;;;21.14;54.88;98346.66;4485341;32;20129;-67
2023/07/21 01:37:46;;;;;;;3.85;1.23;;;;;;;21.19;54.52;98352.16;4471290;32;20103;-67
2023/07/21 01:40:16;;;;;;;2.58;1.40;;;;;;;21.21;54.49;98352.72;4485239;32;20131;-67
2023/07/21 01:42:46;;;;;;;2.95;1.60;;;;;;;21.23;54.50;98356.00;4471050;32;20594;-67
2023/07/21 01:45:15;;;;;;;6.57;1.45;;;;;;;21.23;54.57;98348.03;4485681;32;20096;-67
2023/07/21 01:47:46;;;;;;;1.75;1.27;;;;;;;21.30;54.34;98348.75;4485091;32;20085;-67
2023/07/21 01:50:18;;;;;;;2.80;1.42;;;;;;;21.33;54.52;98339.53;4485367;32;20131;-67
2023/07/21 01:52:47;;;;;;;2.07;1.33;;;;;;;21.37;54.45;98341.53;4484441;32;20104;-67
2023/07/21 01:55:31;;;;;;;2.12;1.42;;;;;;;21.42;53.79;98340.88;4471642;32;20131;-67
2023/07/21 01:58:06;;;;;;;1.95;1.42;;;;;;;21.44;53.60;98342.31;4471411;32;20076;-67
2023/07/21 02:00:37;;;;;;;5.30;1.42;;;;;;;21.52;53.49;98341.25;4485202;32;20088;-67
2023/07/21 02:03:18;;;;;;;3.55;1.50;;;;;;;21.47;53.52;98337.56;4472541;32;20183;-67
2023/07/21 02:05:48;;;;;;;3.03;1.70;;;;;;;21.51;53.43;98330.81;4471260;32;20188;-67
2023/07/21 02:08:17;;;;;;;5.50;1.60;;;;;;;21.53;52.63;98340.22;4484986;32;20080;-67
2023/07/21 02:10:46;;;;;;;1.52;1.35;;;;;;;21.60;52.23;98345.47;4485102;32;20130;-67
2023/07/21 02:13:15;;;;;;;3.55;1.83;;;;;;;21.62;51.73;98346.09;4484905;32;20498;-67
2023/07/21 02:15:44;;;;;;;5.87;2.00;;;;;;;21.67;52.02;98354.25;4485049;32;20108;-67
2023/07/21 02:18:12;;;;;;;4.72;1.60;;;;;;;21.70;51.35;98355.66;4478716;32;20100;-67
2023/07/21 02:20:40;;;;;;;3.05;1.30;;;;;;;21.65;51.23;98345.66;4484971;32;20123;-67
2023/07/21 02:23:09;;;;;;;3.65;1.80;;;;;;;21.70;51.18;98351.12;4485168;32;20176;-67
2023/07/21 02:25:37;;;;;;;1.90;1.40;;;;;;;21.65;51.24;98344.81;4484841;32;20097;-67
2023/07/21 02:28:05;;;;;;;2.05;1.60;;;;;;;21.71;51.34;98347.44;4484766;32;20106;-67
2023/07/21 02:30:32;;;;;;;4.03;1.50;;;;;;;21.72;51.31;98350.91;4484846;32;20096;-67
2023/07/21 02:33:00;;;;;;;3.20;1.65;;;;;;;21.71;51.21;98355.44;4484918;32;20424;-67
2023/07/21 02:35:29;;;;;;;1.83;1.40;;;;;;;21.61;51.70;98360.44;4484958;32;20566;-67
2023/07/21 02:38:00;;;;;;;2.70;1.35;;;;;;;21.62;51.86;98354.91;4484549;32;20093;-67
2023/07/21 02:40:31;;;;;;;3.25;1.40;;;;;;;21.57;51.89;98351.25;4484771;32;20152;-67
2023/07/21 02:42:58;;;;;;;2.03;1.52;;;;;;;21.71;52.01;98370.59;4484599;32;20111;-67
2023/07/21 02:45:26;;;;;;;4.15;1.45;;;;;;;21.67;52.34;98367.56;4484668;32;20084;-67
2023/07/21 02:47:54;;;;;;;3.03;1.62;;;;;;;21.54;52.78;98365.00;4484150;32;20537;-67
2023/07/21 02:50:23;;;;;;;2.10;1.70;;;;;;;21.44;53.49;98373.47;4484223;32;20153;-67
2023/07/21 02:52:50;;;;;;;3.50;1.73;;;;;;;21.43;53.83;98369.97;4484063;32;20151;-67
2023/07/21 02:55:19;;;;;;;4.37;1.70;;;;;;;21.37;53.84;98362.84;4484449;32;20096;-67
2023/07/21 02:57:47;;;;;;;7.85;1.50;;;;;;;21.38;54.21;98372.50;4484681;32;20093;-67
2023/07/21 03:00:15;;;;;;;3.60;1.40;;;;;;;21.39;54.71;98375.97;4484679;32;20126;-67
2023/07/21 03:02:44;;;;;;;2.92;1.55;;;;;;;21.34;54.65;98379.28;4484576;32;20159;-67
2023/07/21 03:05:12;;;;;;;2.45;1.80;;;;;;;21.32;55.02;98381.34;4484639;32;20097;-67
2023/07/21 03:07:39;;;;;;;1.83;1.30;;;;;;;21.32;55.18;98385.84;4484597;32;20096;-67
2023/07/21 03:10:11;;;;;;;1.77;1.20;;;;;;;21.32;55.74;98380.53;4484396;32;20624;-67
2023/07/21 03:12:41;;;;;;;4.45;1.70;;;;;;;21.41;56.05;98384.56;4484701;32;20084;-67
2023/07/21 03:15:09;;;;;;;2.97;1.67;;;;;;;21.47;56.07;98386.38;4484299;32;20092;-67
2023/07/21 03:17:40;;;;;;;2.03;1.33;;;;;;;21.52;56.38;98393.75;4470831;32;20457;-67
2023/07/21 03:20:12;;;;;;;4.22;1.73;;;;;;;21.47;56.51;98386.38;4469907;32;20096;-67
2023/07/21 03:22:39;;;;;;;2.55;1.48;;;;;;;21.44;56.91;98384.94;4484343;32;20244;-67
2023/07/21 03:25:09;;;;;;;3.08;1.95;;;;;;;21.35;57.46;98374.78;4484009;32;20485;-67
2023/07/21 03:27:40;;;;;;;3.72;1.73;;;;;;;21.30;58.53;98379.94;4484068;32;20153;-67
2023/07/21 03:30:13;;;;;;;3.35;2.17;;;;;;;21.24;59.45;98377.13;4484244;32;20096;-67
2023/07/21 03:32:45;;;;;;;7.80;1.90;;;;;;;21.16;60.35;98373.88;4484407;32;20114;-67
2023/07/21 03:35:13;;;;;;;3.35;2.05;;;;;;;21.11;60.94;98365.75;4484270;32;20561;-67
2023/07/21 03:37:40;;;;;;;3.83;1.60;;;;;;;21.05;61.47;98360.22;4484121;32;20161;-67
2023/07/21 03:40:10;;;;;;;2.78;1.70;;;;;;;20.85;61.64;98354.22;4484102;32;20134;-67
2023/07/21 03:42:38;;;;;;;2.92;1.70;;;;;;;20.71;61.88;98358.78;4483841;32;20129;-67
2023/07/21 03:45:06;;;;;;;3.22;2.00;;;;;;;20.68;61.35;98364.53;4483864;32;20084;-67
2023/07/21 03:47:36;;;;;;;4.62;1.73;;;;;;;20.71;61.02;98359.59;4469784;32;20093;-67
2023/07/21 03:50:04;;;;;;;4.53;2.25;;;;;;;20.74;60.89;98353.84;4483404;32;20148;-67
2023/07/21 03:52:33;;;;;;;5.78;1.80;;;;;;;20.85;60.54;98355.03;4469464;32;20130;-67
2023/07/21 03:55:01;;;;;;;2.47;1.70;;;;;;;20.96;59.95;98356.19;4469562;32;20183;-67
2023/07/21 03:57:29;;;;;;;7.53;1.80;;;;;;;21.14;59.21;98357.31;4483998;32;20148;-67
2023/07/21 03:59:56;;;;;;;2.00;1.55;;;;;;;21.39;57.58;98363.47;4485616;32;20173;-67
2023/07/21 04:02:25;;;;;;;3.42;2.10;;;;;;;21.57;57.60;98372.56;4485678;32;20092;-67
2023/07/21 04:04:54;;;;;;;18.83;2.55;;;;;;;21.74;56.37;98368.34;4485238;32;20100;-66
2023/07/21 04:07:22;;;;;;;2.58;1.80;;;;;;;21.95;55.66;98371.59;4485836;32;20137;-67
2023/07/21 04:09:49;;;;;;;4.47;2.00;;;;;;;22.00;55.28;98369.09;4485753;32;20108;-69
2023/07/21 04:12:18;;;;;;;2.80;1.70;;;;;;;21.98;55.25;98365.81;4485628;32;20171;-68
2023/07/21 04:14:45;;;;;;;3.90;2.10;;;;;;;21.95;55.61;98355.59;4485677;32;20159;-68
2023/07/21 04:17:12;;;;;;;4.50;1.92;;;;;;;21.94;55.74;98354.00;4485804;32;20115;-68
2023/07/21 04:19:40;;;;;;;2.65;1.65;;;;;;;22.08;56.02;98355.47;4485493;32;20413;-68
2023/07/21 04:22:08;;;;;;;4.97;2.10;;;;;;;22.10;56.10;98356.06;4485299;32;20100;-67
2023/07/21 04:24:36;;;;;;;2.78;1.73;;;;;;;22.11;56.18;98360.34;4485304;32;20099;-68
2023/07/21 04:27:04;;;;;;;2.15;1.58;;;;;;;22.11;56.24;98363.03;4485740;32;20410;-68
2023/07/21 04:29:32;;;;;;;3.28;1.95;;;;;;;22.13;56.56;98378.81;4485903;32;20112;-68
2023/07/21 04:32:03;;;;;;;4.45;1.75;;;;;;;22.05;57.12;98374.59;4484922;32;20118;-68
2023/07/21 04:34:33;;;;;;;6.12;2.00;;;;;;;22.15;57.57;98388.22;4484529;32;20092;-68
2023/07/21 04:37:01;;;;;;;2.78;1.98;;;;;;;22.04;58.31;98374.81;4482791;32;20163;-68
2023/07/21 04:39:28;;;;;;;3.15;1.80;;;;;;;22.02;58.52;98375.03;4485580;32;20104;-68
2023/07/21 04:41:56;;;;;;;3.87;2.00;;;;;;;21.97;59.13;98373.03;4486003;32;20122;-68
2023/07/21 04:44:24;;;;;;;5.40;2.20;;;;;;;22.09;60.14;98366.94;4485774;32;20564;-68
2023/07/21 04:46:54;;;;;;;6.22;2.40;;;;;;;22.01;61.71;98380.59;4485738;32;20084;-68
2023/07/21 04:49:21;;;;;;;3.55;2.10;;;;;;;22.10;61.26;98369.37;4485313;32;20113;-68
2023/07/21 04:51:50;;;;;;;6.80;2.75;;;;;;;22.25;60.72;98373.56;4484783;32;20580;-68
2023/07/21 04:54:18;;;;;;;2.97;2.12;;;;;;;22.37;61.77;98387.00;4485377;32;20568;-68
2023/07/21 04:56:47;;;;;;;3.35;1.95;;;;;;;22.38;61.62;98384.13;4485788;32;20084;-68
2023/07/21 04:59:16;;;;;;;7.50;3.08;;;;;;;22.30;62.88;98387.88;4485750;32;20124;-68
2023/07/21 05:01:43;;;;;;;4.60;2.80;;;;;;;22.08;64.41;98381.34;4485331;32;20095;-68
2023/07/21 05:04:11;;;;;;;5.03;2.58;;;;;;;22.03;65.31;98387.34;4485376;32;20613;-68
2023/07/21 05:06:38;;;;;;;10.98;3.30;;;;;;;22.00;66.76;98384.28;4485607;32;20092;-68
2023/07/21 05:09:07;;;;;;;4.68;2.80;;;;;;;22.13;67.08;98387.66;4485003;32;20120;-68
2023/07/21 05:11:35;;;;;;;7.10;2.97;;;;;;;22.11;68.05;98389.72;4485484;32;20100;-68
2023/07/21 05:14:05;;;;;;;5.45;2.85;;;;;;;22.22;68.13;98384.69;4485412;32;20430;-68
2023/07/21 05:16:35;;;;;;;7.28;3.15;;;;;;;22.15;69.73;98390.91;4471903;32;20463;-68
2023/07/21 05:19:02;;;;;;;7.97;3.25;;;;;;;22.28;70.10;98389.12;4468600;32;20127;-68
2023/07/21 05:21:30;;;;;;;5.68;3.50;;;;;;;22.20;71.17;98386.75;4475998;32;20104;-68
2023/07/21 05:23:58;;;;;;;5.55;3.00;;;;;;;22.11;71.90;98383.56;4482568;32;20104;-68
2023/07/21 05:26:26;;;;;;;4.87;3.00;;;;;;;22.06;72.36;98389.56;4479293;32;20096;-68
2023/07/21 05:28:55;;;;;;;7.60;2.92;;;;;;;22.17;72.30;98387.22;4479232;32;20135;-68
2023/07/21 05:31:23;;;;;;;4.18;3.25;;;;;;;22.32;71.56;98398.34;4483013;32;20088;-68
2023/07/21 05:33:51;;;;;;;4.75;3.00;;;;;;;21.95;72.88;98391.13;4483327;32;20220;-68
2023/07/21 05:36:20;;;;;;;6.85;3.03;;;;;;;21.99;73.39;98399.47;4479995;32;20088;-68
2023/07/21 05:38:49;;;;;;;9.05;3.55;;;;;;;22.13;73.46;98409.00;4481582;32;20413;-68
2023/07/21 05:41:18;;;;;;;9.25;3.70;;;;;;;22.10;73.66;98401.41;4483980;32;20084;-68
2023/07/21 05:43:46;;;;;;;6.57;3.22;;;;;;;22.04;74.09;98390.81;4481530;32;20115;-68
2023/07/21 05:46:24;;;;;;;8.95;3.40;;;;;;;22.22;74.23;98374.81;4474921;32;20115;-68
2023/07/21 05:48:53;;;;;;;15.00;3.17;;;;;;;22.32;74.32;98375.13;4480733;32;20105;-68
2023/07/21 05:51:21;;;;;;;6.78;3.60;;;;;;;22.48;74.35;98373.72;4475571;32;20088;-68
2023/07/21 05:53:49;;;;;;;4.82;3.55;;;;;;;22.50;74.44;98363.63;4481443;32;20461;-68
2023/07/21 05:56:17;;;;;;;15.02;3.60;;;;;;;22.61;74.54;98363.94;4478449;32;20119;-68
2023/07/21 05:58:46;;;;;;;13.57;3.60;;;;;;;22.87;72.98;98376.09;4481837;32;20097;-68
2023/07/21 06:01:14;;;;;;;7.25;3.45;;;;;;;23.05;72.54;98364.53;4480784;32;20100;-68
2023/07/21 06:03:42;;;;;;;13.18;3.83;;;;;;;22.92;73.14;98367.41;4481832;32;20139;-68
2023/07/21 06:06:09;;;;;;;7.00;3.42;;;;;;;23.14;72.38;98365.88;4481416;32;20114;-68
2023/07/21 06:08:40;;;;;;;9.40;4.07;;;;;;;22.91;72.87;98363.94;4481801;32;20108;-68
2023/07/21 06:11:10;;;;;;;10.80;3.87;;;;;;;23.01;73.14;98361.53;4481653;32;20525;-68
2023/07/21 06:13:38;;;;;;;10.73;3.83;;;;;;;22.93;73.68;98353.00;4476944;32;20114;-68
2023/07/21 06:16:10;;;;;;;11.30;3.60;;;;;;;22.80;74.01;98357.50;4461946;32;20156;-68
2023/07/21 06:18:39;;;;;;;4.78;3.42;;;;;;;22.49;75.84;98379.88;4472682;32;20380;-68
2023/07/21 06:21:06;;;;;;;11.63;3.83;;;;;;;22.53;75.88;98381.06;4476747;32;20164;-68
2023/07/21 06:23:35;;;;;;;8.13;3.83;;;;;;;22.47;76.76;98389.97;4481575;32;20100;-68
2023/07/21 06:26:03;;;;;;;12.57;3.95;;;;;;;22.47;77.31;98409.47;4482276;32;20104;-68
2023/07/21 06:28:30;;;;;;;8.27;4.03;;;;;;;22.55;76.99;98402.19;4480034;32;20113;-68
2023/07/21 06:31:00;;;;;;;13.95;5.93;;;;;;;22.62;77.18;98401.06;4475141;32;20100;-68
2023/07/21 06:33:29;;;;;;;9.55;3.80;;;;;;;22.72;77.03;98405.88;4480421;32;20143;-68
2023/07/21 06:35:58;;;;;;;11.38;3.92;;;;;;;22.55;77.58;98407.53;4479305;32;20104;-68
2023/07/21 06:38:26;;;;;;;12.63;3.87;;;;;;;22.51;77.93;98415.16;4476700;32;20484;-68
2023/07/21 06:40:54;;;;;;;10.55;3.67;;;;;;;22.53;77.87;98415.78;4477481;32;20119;-68
2023/07/21 06:43:22;;;;;;;5.35;3.50;;;;;;;22.62;77.71;98421.59;4461261;32;20164;-68
2023/07/21 06:45:50;;;;;;;6.55;3.58;;;;;;;22.71;77.51;98414.09;4478770;32;20526;-68
2023/07/21 06:48:18;;;;;;;7.72;3.58;;;;;;;22.69;76.71;98411.66;4479794;32;20092;-68
2023/07/21 06:50:50;;;;;;;8.63;3.40;;;;;;;22.67;76.70;98403.06;4471396;32;79682;-68
2023/07/21 06:53:19;;;;;;;13.75;5.05;;;;;;;22.69;76.43;98406.31;4477051;32;20080;-68
2023/07/21 06:55:51;;;;;;;9.05;3.72;;;;;;;22.60;77.13;98407.66;4475400;31;20135;-68
2023/07/21 06:58:19;;;;;;;9.77;4.50;;;;;;;22.70;76.84;98404.50;4478428;32;20155;-68
2023/07/21 07:00:47;;;;;;;8.82;3.70;;;;;;;22.61;76.77;98403.97;4479507;32;20084;-68
2023/07/21 07:03:15;;;;;;;6.65;3.30;;;;;;;22.46;77.24;98407.81;4476189;32;20103;-68
2023/07/21 07:05:45;;;;;;;10.02;3.65;;;;;;;22.66;76.03;98407.59;4477022;32;20132;-68
2023/07/21 07:08:13;;;;;;;12.63;3.80;;;;;;;22.45;76.82;98402.72;4475336;32;20109;-68
2023/07/21 07:10:40;;;;;;;7.37;3.53;;;;;;;22.53;76.89;98396.25;4476881;32;20100;-68
2023/07/21 07:13:09;;;;;;;8.23;3.75;;;;;;;22.50;76.33;98400.19;4476576;32;20120;-68
2023/07/21 07:15:36;;;;;;;15.60;4.07;;;;;;;22.57;74.76;98408.13;4474172;32;20572;-68
2023/07/21 07:18:06;;;;;;;9.25;3.67;;;;;;;22.64;74.72;98401.66;4479435;32;20109;-68
2023/07/21 07:20:33;;;;;;;8.40;3.75;;;;;;;22.85;74.07;98394.22;4474731;32;20143;-68
2023/07/21 07:23:03;;;;;;;6.32;3.22;;;;;;;22.67;74.28;98387.06;4475442;32;20563;-68
2023/07/21 07:25:30;;;;;;;11.43;3.67;;;;;;;22.82;74.42;98397.34;4473936;32;20104;-68
2023/07/21 07:27:58;;;;;;;13.52;4.00;;;;;;;22.87;73.97;98389.44;4478252;32;20101;-68
2023/07/21 07:30:27;;;;;;;8.80;3.55;;;;;;;22.95;73.38;98372.28;4478080;32;20171;-68
2023/07/21 07:32:56;;;;;;;14.85;3.85;;;;;;;22.93;73.46;98377.06;4482323;32;20597;-68
2023/07/21 07:35:26;;;;;;;16.33;3.90;;;;;;;23.26;72.78;98368.59;4476460;32;20462;-68
2023/07/21 07:37:53;;;;;;;9.02;3.67;;;;;;;23.33;71.64;98382.66;4480200;31;20104;-68
2023/07/21 07:40:21;;;;;;;7.97;4.00;;;;;;;23.41;71.75;98381.50;4473891;32;20115;-68
2023/07/21 07:42:51;;;;;;;9.57;4.25;;;;;;;23.50;70.83;98382.00;4477764;32;20172;-68
2023/07/21 07:45:19;;;;;;;8.23;3.28;;;;;;;23.59;70.76;98369.06;4474286;32;20146;-68
2023/07/21 07:47:46;;;;;;;6.40;3.47;;;;;;;24.04;69.86;98368.53;4476700;32;20485;-68
2023/07/21 07:50:16;;;;;;;7.47;3.37;;;;;;;24.00;69.13;98367.38;4477266;32;20096;-68
2023/07/21 07:52:44;;;;;;;9.38;3.80;;;;;;;24.44;69.06;98371.25;4483343;32;20096;-68
2023/07/21 07:55:14;;;;;;;8.13;3.55;;;;;;;24.34;67.56;98373.69;4475136;32;20171;-68
2023/07/21 07:57:43;;;;;;;8.73;3.65;;;;;;;24.61;67.47;98384.72;4481733;32;20173;-68
2023/07/21 08:00:14;;;;;;;8.98;4.12;;;;;;;24.97;65.77;98381.91;4471855;32;20108;-68
2023/07/21 08:02:43;;;;;;;9.13;3.33;;;;;;;25.37;64.79;98374.84;4480381;32;20610;-68
2023/07/21 08:05:11;;;;;;;7.97;3.42;;;;;;;25.49;64.20;98364.84;4476784;32;20119;-68
2023/07/21 08:07:39;;;;;;;6.43;3.47;;;;;;;25.50;62.40;98371.84;4475702;32;20100;-68
2023/07/21 08:10:07;;;;;;;9.32;3.53;;;;;;;25.51;63.05;98373.44;4475523;32;20096;-68
2023/07/21 08:12:34;;;;;;;7.20;3.60;;;;;;;25.07;62.70;98370.56;4479365;32;20084;-68
2023/07/21 08:15:04;;;;;;;10.10;3.90;;;;;;;25.56;63.05;98373.53;4481887;32;20147;-68
2023/07/21 08:17:31;;;;;;;9.18;3.53;;;;;;;25.76;61.76;98366.88;4472458;32;20525;-68
2023/07/21 08:19:59;;;;;;;4.20;3.30;;;;;;;25.98;60.55;98370.44;4473063;32;20118;-68
2023/07/21 08:22:28;;;;;;;13.30;4.20;;;;;;;26.41;60.06;98372.59;4471945;32;20178;-68
2023/07/21 08:24:56;;;;;;;9.98;3.70;;;;;;;26.65;59.41;98371.25;4473981;32;20092;-68
2023/07/21 08:27:26;;;;;;;10.60;3.12;;;;;;;26.66;58.73;98369.37;4477799;32;20104;-68
2023/07/21 08:29:54;;;;;;;7.62;3.40;;;;;;;26.67;56.14;98371.84;4474648;32;20143;-68
2023/07/21 08:32:21;;;;;;;6.45;3.85;;;;;;;26.95;56.12;98369.16;4482868;32;20108;-68
2023/07/21 08:34:49;;;;;;;5.55;3.22;;;;;;;27.43;52.24;98362.91;4476954;32;20697;-68
2023/07/21 08:37:16;;;;;;;11.10;3.45;;;;;;;27.74;53.63;98362.31;4479176;32;20157;-68
2023/07/21 08:39:43;;;;;;;6.35;3.10;;;;;;;28.06;51.67;98369.53;4479887;32;20562;-68
2023/07/21 08:42:12;;;;;;;11.75;3.42;;;;;;;28.11;52.37;98381.12;4469098;32;20107;-68
2023/07/21 08:44:40;;;;;;;7.15;3.53;;;;;;;28.24;50.70;98376.34;4455636;32;20127;-68
2023/07/21 08:47:09;;;;;;;6.37;3.05;;;;;;;28.02;49.11;98368.41;4475150;32;20097;-68
2023/07/21 08:49:39;;;;;;;4.03;2.90;;;;;;;28.22;50.22;98360.47;4476265;32;20469;-68
2023/07/21 08:52:06;;;;;;;5.75;3.20;;;;;;;28.41;47.53;98362.69;4476470;32;20525;-68
2023/07/21 08:54:33;;;;;;;11.35;3.05;;;;;;;28.13;48.89;98354.75;4477914;32;20096;-68
2023/07/21 08:57:04;;;;;;;6.12;3.20;;;;;;;27.61;49.63;98352.78;4481774;32;20135;-68
2023/07/21 08:59:32;;;;;;;9.18;3.35;;;;;;;27.24;52.74;98345.50;4475944;32;20092;-68
2023/07/21 09:02:01;;;;;;;8.88;3.70;;;;;;;27.25;52.50;98345.25;4473464;32;20166;-68
2023/07/21 09:04:31;;;;;;;10.10;3.45;;;;;;;27.52;51.61;98355.16;4472964;32;20089;-72
2023/07/21 09:07:00;;;;;;;6.60;3.33;;;;;;;27.93;50.77;98357.31;4471871;32;20158;-69
2023/07/21 09:09:31;;;;;;;8.60;2.97;;;;;;;27.85;51.27;98363.19;4481147;32;20442;-68
2023/07/21 09:12:07;;;;;;;6.43;3.37;;;;;;;27.62;49.48;98359.81;4475402;32;20088;-68
2023/07/21 09:14:39;;;;;;;3.78;2.70;;;;;;;27.32;49.87;98347.75;4476521;32;20130;-68
2023/07/21 09:17:09;;;;;;;6.87;3.12;;;;;;;26.79;49.06;98346.72;4471681;32;20444;-68
2023/07/21 09:19:42;;;;;;;9.68;3.40;;;;;;;26.90;50.94;98349.25;4480328;32;20144;-68
2023/07/21 09:22:12;;;;;;;5.62;3.33;;;;;;;27.03;51.62;98350.69;4475474;32;20092;-68
2023/07/21 09:24:50;;;;;;;9.85;3.12;;;;;;;27.01;53.62;98363.59;4482712;32;20563;-69
2023/07/21 09:27:19;;;;;;;11.75;3.00;;;;;;;27.39;52.57;98356.41;4471072;32;20134;-68
2023/07/21 09:29:46;;;;;;;5.80;3.20;;;;;;;27.78;50.09;98358.00;4480599;32;20088;-67
2023/07/21 09:32:16;;;;;;;4.85;3.10;;;;;;;27.58;50.51;98359.50;4480064;31;20173;-67
2023/07/21 09:35:00;;;;;;;7.90;3.37;;;;;;;27.82;47.18;98363.72;4474162;32;20089;-68
2023/07/21 09:37:29;;;;;;;9.90;2.80;;;;;;;28.35;46.11;98382.59;4479246;32;20530;-68
2023/07/21 09:40:05;;;;;;;7.85;3.10;;;;;;;28.69;46.13;98380.28;4482749;32;20484;-70
2023/07/21 09:42:32;;;;;;;7.68;3.40;;;;;;;28.50;45.37;98369.19;4481579;32;20170;-70
2023/07/21 09:44:59;;;;;;;6.78;3.25;;;;;;;28.65;46.54;98365.75;4470543;32;20157;-68
2023/07/21 09:47:27;;;;;;;7.00;2.90;;;;;;;28.99;46.43;98359.88;4480118;32;20124;-67
2023/07/21 09:49:58;;;;;;;9.10;2.97;;;;;;;29.03;45.23;98355.56;4474159;32;20165;-67
2023/07/21 09:52:27;;;;;;;7.30;2.95;;;;;;;28.88;44.90;98358.25;4482182;32;20541;-66
2023/07/21 09:55:11;;;;;;;7.37;3.08;;;;;;;28.76;42.52;98370.09;4480992;32;20186;-66
2023/07/21 09:57:42;;;;;;;20.40;2.67;;;;;;;28.96;43.37;98371.19;4475710;32;20522;-66
2023/07/21 10:00:15;;;;;;;5.53;2.83;;;;;;;28.95;39.18;98361.47;4478063;32;20168;-66
2023/07/21 10:02:49;;;;;;;9.00;3.05;;;;;;;28.92;41.96;98356.63;4477917;31;20604;-66
2023/07/21 10:05:17;;;;;;;4.72;2.87;;;;;;;28.58;42.73;98343.59;4483930;31;20093;-66
2023/07/21 10:07:47;;;;;;;6.43;2.92;;;;;;;28.60;44.78;98336.06;4482221;32;20100;-66
2023/07/21 10:10:15;;;;;;;4.07;2.70;;;;;;;28.46;44.67;98344.66;4469883;32;20569;-66
2023/07/21 10:12:52;;;;;;;9.27;2.80;;;;;;;28.23;43.51;98337.00;4468710;32;20096;-66
2023/07/21 10:15:31;;;;;;;8.05;2.58;;;;;;;28.42;42.44;98342.72;4477104;32;20076;-65
2023/07/21 10:18:06;;;;;;;14.18;3.17;;;;;;;28.33;43.16;98343.25;4476926;32;20442;-67
2023/07/21 10:20:43;;;;;;;5.00;2.67;;;;;;;28.24;40.49;98339.44;4473669;32;20126;-67
2023/07/21 10:23:14;;;;;;;7.93;2.75;;;;;;;28.11;40.85;98335.34;4467957;32;21093;-65
2023/07/21 10:25:51;;;;;;;10.15;3.00;;;;;;;28.12;41.35;98331.56;4461842;32;20097;-64
2023/07/21 10:28:43;;;;;;;3.00;2.17;;;;;;;28.61;41.94;98341.19;4468871;32;20084;-65
2023/07/21 10:31:24;;;;;;;5.35;2.47;;;;;;;29.39;41.06;98342.13;4480318;32;20104;-65
2023/07/21 10:34:10;;;;;;;7.68;2.65;;;;;;;29.17;38.79;98336.97;4472812;32;20092;-64
2023/07/21 10:36:51;;;;;;;3.97;2.65;;;;;;;28.72;39.96;98333.97;4476033;32;20072;-64
2023/07/21 10:39:21;;;;;;;10.48;2.90;;;;;;;28.64;40.80;98337.16;4470983;32;20116;-67
2023/07/21 10:41:58;;;;;;;5.90;2.63;;;;;;;29.09;41.52;98322.13;4483023;32;20112;-67
2023/07/21 10:44:46;;;;;;;4.62;2.33;;;;;;;29.06;39.27;98321.88;4479675;32;20096;-66
2023/07/21 10:47:18;;;;;;;4.75;2.42;;;;;;;29.06;38.62;98314.59;4476644;32;20096;-67
2023/07/21 10:49:48;;;;;;;4.62;2.15;;;;;;;28.74;39.07;98307.53;4469419;32;20168;-67
2023/07/21 10:52:16;;;;;;;9.02;2.50;;;;;;;28.83;37.71;98300.53;4475553;32;20108;-68
2023/07/21 10:54:43;;;;;;;3.35;2.67;;;;;;;28.63;39.69;98303.19;4482650;32;20187;-66
2023/07/21 10:57:13;;;;;;;6.80;2.70;;;;;;;28.61;40.03;98310.75;4478228;32;20466;-67
2023/07/21 10:59:41;;;;;;;5.57;2.78;;;;;;;28.58;38.80;98312.06;4480733;32;20108;-67
2023/07/21 11:02:09;;;;;;;5.90;2.78;;;;;;;28.47;41.12;98305.03;4478920;32;20084;-67
2023/07/21 11:04:40;;;;;;;9.95;2.72;;;;;;;28.52;41.36;98296.16;4473645;31;20120;-66
2023/07/21 11:07:08;;;;;;;20.17;3.83;;;;;;;28.26;41.73;98296.09;4473293;32;20118;-68
2023/07/21 11:09:43;;;;;;;7.12;2.70;;;;;;;27.86;42.13;98292.94;4476637;32;20111;-67
2023/07/21 11:12:12;;;;;;;4.07;2.58;;;;;;;27.64;42.16;98293.06;4475841;32;20164;-67
2023/07/21 11:14:40;;;;;;;10.63;2.37;;;;;;;27.31;42.83;98300.34;4480083;32;20144;-67
2023/07/21 11:17:08;;;;;;;9.98;2.87;;;;;;;27.05;43.53;98299.34;4456948;32;20152;-69
2023/07/21 11:19:36;;;;;;;5.00;2.60;;;;;;;26.61;45.55;98305.66;4478567;32;20111;-67
2023/07/21 11:22:04;;;;;;;4.43;2.85;;;;;;;26.23;49.30;98303.91;4467196;32;20126;-68
2023/07/21 11:24:32;;;;;;;13.43;3.00;;;;;;;26.26;49.93;98306.09;4482786;32;20089;-68
2023/07/21 11:27:05;;;;;;;8.85;2.42;;;;;;;26.29;47.19;98309.06;4483520;32;20100;-68
2023/07/21 11:29:39;;;;;;;8.23;3.00;;;;;;;26.14;45.91;98308.87;4462300;32;20120;-67
2023/07/21 11:32:22;;;;;;;6.10;2.92;;;;;;;26.33;47.92;98323.63;4483834;32;20096;-68
2023/07/21 11:34:57;;;;;;;3.62;2.50;;;;;;;26.11;47.53;98326.28;4484107;32;20119;-69
2023/07/21 11:37:38;;;;;;;5.10;2.70;;;;;;;26.17;48.12;98337.91;4483486;32;20540;-69
2023/07/21 11:40:13;;;;;;;3.35;2.40;;;;;;;25.99;49.01;98334.47;4485007;32;20125;-69
2023/07/21 11:42:42;;;;;;;7.30;2.70;;;;;;;25.99;48.47;98334.47;4486200;32;20502;-69